createdAt,value
2022-08-02T00:00:14.594Z,1.80
2022-08-02T00:02:45.280Z,1.80
2022-08-02T00:05:12.744Z,1.98
2022-08-02T00:07:41.319Z,1.92
2022-08-02T00:10:09.254Z,2.15
2022-08-02T00:12:35.851Z,1.75
2022-08-02T00:15:03.258Z,2.05
2022-08-02T00:17:29.616Z,1.88
2022-08-02T00:19:56.009Z,1.70
2022-08-02T00:22:22.448Z,1.90
2022-08-02T00:24:51.789Z,1.80
2022-08-02T00:27:18.188Z,1.80
2022-08-02T00:29:52.815Z,2.20
2022-08-02T00:32:21.804Z,1.88
2022-08-02T00:34:48.331Z,1.48
2022-08-02T00:37:14.939Z,1.60
2022-08-02T00:39:44.979Z,1.30
2022-08-02T00:42:14.775Z,1.70
2022-08-02T00:44:41.671Z,1.55
2022-08-02T00:47:08.123Z,1.40
2022-08-02T00:49:34.494Z,1.50
2022-08-02T00:52:01.668Z,1.50
2022-08-02T00:54:28.078Z,1.38
2022-08-02T00:56:54.499Z,1.80
2022-08-02T00:59:20.907Z,1.40
2022-08-02T01:01:56.762Z,1.48
2022-08-02T01:04:29.815Z,1.45
2022-08-02T01:06:59.262Z,1.70
2022-08-02T01:09:25.853Z,1.70
2022-08-02T01:11:52.528Z,1.70
2022-08-02T01:14:19.553Z,1.65
2022-08-02T01:17:01.024Z,1.30
2022-08-02T01:19:43.838Z,1.50
2022-08-02T01:22:58.443Z,1.30
2022-08-02T01:25:26.037Z,1.75
2022-08-02T01:28:29.809Z,1.85
2022-08-02T01:31:01.155Z,1.60
2022-08-02T01:33:35.795Z,1.50
2022-08-02T01:36:06.004Z,1.48
2022-08-02T01:38:39.951Z,1.40
2022-08-02T01:41:09.683Z,1.65
2022-08-02T01:43:38.073Z,1.58
2022-08-02T01:46:05.616Z,2.13
2022-08-02T01:48:34.658Z,1.48
2022-08-02T01:51:04.080Z,1.48
2022-08-02T01:53:31.605Z,1.33
2022-08-02T01:56:00.371Z,1.55
2022-08-02T01:58:33.837Z,1.50
2022-08-02T02:01:01.980Z,1.55
2022-08-02T02:03:33.681Z,1.55
2022-08-02T02:06:03.464Z,1.60
2022-08-02T02:08:36.099Z,1.60
2022-08-02T02:12:11.938Z,1.65
2022-08-02T02:13:50.709Z,1.40
2022-08-02T02:16:19.899Z,1.85
2022-08-02T02:18:47.432Z,1.60
2022-08-02T02:21:14.789Z,2.00
2022-08-02T02:23:43.408Z,1.80
2022-08-02T02:26:13.477Z,1.60
2022-08-02T02:28:40.958Z,1.80
2022-08-02T02:31:11.639Z,1.60
2022-08-02T02:33:48.723Z,1.55
2022-08-02T02:36:17.701Z,1.35
2022-08-02T02:38:45.291Z,1.77
2022-08-02T02:41:13.796Z,1.40
2022-08-02T02:43:42.037Z,1.60
2022-08-02T02:46:12.459Z,1.88
2022-08-02T02:48:39.828Z,1.75
2022-08-02T02:51:08.129Z,1.80
2022-08-02T02:54:30.905Z,1.88
2022-08-02T02:56:28.839Z,2.00
2022-08-02T02:58:55.853Z,1.50
2022-08-02T03:01:55.078Z,2.00
2022-08-02T03:04:17.504Z,1.60
2022-08-02T03:06:43.893Z,1.92
2022-08-02T03:09:11.551Z,2.10
2022-08-02T03:11:39.605Z,1.85
2022-08-02T03:14:10.274Z,1.73
2022-08-02T03:16:44.276Z,2.08
2022-08-02T03:19:10.961Z,1.70
2022-08-02T03:21:37.563Z,1.85
2022-08-02T03:24:04.514Z,1.85
2022-08-02T03:26:30.944Z,1.63
2022-08-02T03:28:57.312Z,2.25
2022-08-02T03:31:23.821Z,2.20
2022-08-02T03:33:50.373Z,2.30
2022-08-02T03:36:19.239Z,1.90
2022-08-02T03:38:46.359Z,1.88
2022-08-02T03:41:16.179Z,2.10
2022-08-02T03:43:44.134Z,1.90
2022-08-02T03:46:13.877Z,2.22
2022-08-02T03:48:41.594Z,2.00
2022-08-02T03:51:08.649Z,2.20
2022-08-02T03:53:36.289Z,2.20
2022-08-02T03:56:04.787Z,3.00
2022-08-02T03:58:31.258Z,2.10
2022-08-02T04:00:58.369Z,2.17
2022-08-02T04:03:25.599Z,2.92
2022-08-02T04:05:59.270Z,1.95
2022-08-02T04:08:35.287Z,2.75
2022-08-02T04:11:22.685Z,2.13
2022-08-02T04:13:49.112Z,2.40
2022-08-02T04:16:21.197Z,2.33
2022-08-02T04:18:56.125Z,1.90
2022-08-02T04:21:25.576Z,1.77
2022-08-02T04:23:53.068Z,1.88
2022-08-02T04:26:21.911Z,1.70
2022-08-02T04:28:55.614Z,1.92
2022-08-02T04:31:22.881Z,1.80
2022-08-02T04:33:49.789Z,2.10
2022-08-02T04:36:31.702Z,2.17
2022-08-02T04:38:58.734Z,2.65
2022-08-02T04:41:40.934Z,1.90
2022-08-02T04:44:10.758Z,2.33
2022-08-02T04:46:37.148Z,2.75
2022-08-02T04:49:04.833Z,2.00
2022-08-02T04:51:38.387Z,2.30
2022-08-02T04:54:09.921Z,2.97
2022-08-02T04:56:41.034Z,2.30
2022-08-02T04:59:07.977Z,2.40
2022-08-02T05:01:35.992Z,2.20
2022-08-02T05:04:03.504Z,2.47
2022-08-02T05:06:29.948Z,3.72
2022-08-02T05:08:56.481Z,3.20
2022-08-02T05:11:34.356Z,3.30
2022-08-02T05:14:03.216Z,3.15
2022-08-02T05:16:31.773Z,2.80
2022-08-02T05:19:02.207Z,2.67
2022-08-02T05:21:29.788Z,2.92
2022-08-02T05:23:56.293Z,2.85
2022-08-02T05:26:22.938Z,3.38
2022-08-02T05:28:49.658Z,2.85
2022-08-02T05:31:16.583Z,3.85
2022-08-02T05:33:42.929Z,4.22
2022-08-02T05:36:09.585Z,3.85
2022-08-02T05:38:37.631Z,3.95
2022-08-02T05:41:05.661Z,4.47
2022-08-02T05:43:32.653Z,3.65
2022-08-02T05:45:59.495Z,3.15
2022-08-02T05:48:31.183Z,2.85
2022-08-02T05:51:07.012Z,2.97
2022-08-02T05:53:42.863Z,3.40
2022-08-02T05:56:51.704Z,2.80
2022-08-02T05:59:29.452Z,3.97
2022-08-02T06:01:58.447Z,3.80
2022-08-02T06:04:31.463Z,3.38
2022-08-02T06:09:29.262Z,2.50
2022-08-02T06:12:11.100Z,3.08
2022-08-02T06:14:37.909Z,3.45
2022-08-02T06:17:07.257Z,3.83
2022-08-02T06:19:36.668Z,3.50
2022-08-02T06:22:32.244Z,3.38
2022-08-02T06:25:04.554Z,3.17
2022-08-02T06:27:31.545Z,3.78
2022-08-02T06:29:58.278Z,2.95
2022-08-02T06:32:27.429Z,4.15
2022-08-02T06:34:54.513Z,3.25
2022-08-02T06:37:36.522Z,3.13
2022-08-02T06:40:18.701Z,3.35
2022-08-02T06:42:48.872Z,4.00
2022-08-02T06:45:16.827Z,4.13
2022-08-02T06:47:44.204Z,2.75
2022-08-02T06:50:11.125Z,4.50
2022-08-02T06:52:37.664Z,3.60
2022-08-02T06:55:05.572Z,3.60
2022-08-02T06:57:32.620Z,3.13
2022-08-02T07:00:02.223Z,3.78
2022-08-02T07:02:29.968Z,3.10
2022-08-02T07:04:56.400Z,3.15
2022-08-02T07:07:23.010Z,3.90
2022-08-02T07:09:57.234Z,2.65
2022-08-02T07:12:32.194Z,3.00
2022-08-02T07:15:00.631Z,2.90
2022-08-02T07:17:28.254Z,3.20
2022-08-02T07:19:54.854Z,3.15
2022-08-02T07:22:23.311Z,2.60
2022-08-02T07:24:50.821Z,2.30
2022-08-02T07:27:17.347Z,2.90
2022-08-02T07:29:46.818Z,3.08
2022-08-02T07:32:18.315Z,2.70
2022-08-02T07:34:51.319Z,3.30
2022-08-02T07:37:35.380Z,2.58
2022-08-02T07:40:13.837Z,3.45
2022-08-02T07:42:44.917Z,2.50
2022-08-02T07:45:12.717Z,2.78
2022-08-02T07:47:40.671Z,4.15
2022-08-02T07:50:08.572Z,4.88
2022-08-02T07:52:35.492Z,3.15
2022-08-02T07:55:01.904Z,2.55
2022-08-02T07:57:28.379Z,2.58
2022-08-02T07:59:54.744Z,2.42
2022-08-02T08:02:21.115Z,2.00
2022-08-02T08:04:47.501Z,2.60
2022-08-02T08:07:13.969Z,3.53
2022-08-02T08:09:41.931Z,4.30
2022-08-02T08:12:09.731Z,2.38
2022-08-02T08:14:37.545Z,1.50
2022-08-02T08:17:05.561Z,1.52
2022-08-02T08:19:49.956Z,1.42
2022-08-02T08:22:18.352Z,1.70
2022-08-02T08:24:45.197Z,1.70
2022-08-02T08:27:14.463Z,1.73
2022-08-02T08:29:44.621Z,1.85
2022-08-02T08:32:16.287Z,2.08
2022-08-02T08:34:47.812Z,2.90
2022-08-02T08:37:17.154Z,1.65
2022-08-02T08:39:57.663Z,1.60
2022-08-02T08:42:30.753Z,1.40
2022-08-02T08:44:58.906Z,1.50
2022-08-02T08:47:39.694Z,2.03
2022-08-02T08:50:24.092Z,1.40
2022-08-02T08:53:03.638Z,2.20
2022-08-02T08:55:31.637Z,1.75
2022-08-02T08:57:59.532Z,1.70
2022-08-02T09:00:26.326Z,2.25
2022-08-02T09:02:53.225Z,1.40
2022-08-02T09:05:19.651Z,2.13
2022-08-02T09:07:50.810Z,1.48
2022-08-02T09:10:36.196Z,1.90
2022-08-02T09:13:37.690Z,1.70
2022-08-02T09:16:11.717Z,1.70
2022-08-02T09:18:46.658Z,1.40
2022-08-02T09:21:15.848Z,1.30
2022-08-02T09:23:45.475Z,1.40
2022-08-02T09:26:18.545Z,1.27
2022-08-02T09:28:47.384Z,1.00
2022-08-02T09:31:19.245Z,1.30
2022-08-02T09:33:50.804Z,1.30
2022-08-02T09:36:17.612Z,1.17
2022-08-02T09:38:59.444Z,1.20
2022-08-02T09:41:33.661Z,1.65
2022-08-02T09:44:05.433Z,1.08
2022-08-02T09:46:40.613Z,1.00
2022-08-02T09:49:13.154Z,0.88
2022-08-02T09:54:29.212Z,1.08
2022-08-02T09:56:58.699Z,0.90
2022-08-02T09:59:27.005Z,1.40
2022-08-02T10:02:01.869Z,1.27
2022-08-02T10:04:32.158Z,1.55
2022-08-02T10:07:04.714Z,1.60
2022-08-02T10:09:31.609Z,2.10
2022-08-02T10:11:59.728Z,1.60
2022-08-02T10:14:26.732Z,1.60
2022-08-02T10:16:53.983Z,1.63
2022-08-02T10:19:38.841Z,1.80
2022-08-02T10:22:12.782Z,3.75
2022-08-02T10:24:47.875Z,1.70
2022-08-02T10:27:20.669Z,2.15
2022-08-02T10:29:53.583Z,1.65
2022-08-02T10:32:37.517Z,1.83
2022-08-02T10:35:19.833Z,1.50
2022-08-02T10:38:03.865Z,1.80
2022-08-02T10:40:47.627Z,1.60
2022-08-02T10:43:36.907Z,1.88
2022-08-02T10:46:25.016Z,2.22
2022-08-02T10:52:02.321Z,1.60
2022-08-02T10:54:31.931Z,2.15
2022-08-02T10:57:01.441Z,1.75
2022-08-02T10:59:33.284Z,1.90
2022-08-02T11:02:05.417Z,1.52
2022-08-02T11:04:55.964Z,1.42
2022-08-02T11:07:35.190Z,1.98
2022-08-02T11:10:24.663Z,1.65
2022-08-02T11:13:13.947Z,1.50
2022-08-02T11:16:01.402Z,1.70
2022-08-02T11:18:56.974Z,2.10
2022-08-02T11:21:25.375Z,1.48
2022-08-02T11:23:52.777Z,1.85
2022-08-02T11:26:31.705Z,1.58
2022-08-02T11:29:00.324Z,1.33
2022-08-02T11:31:27.771Z,1.60
2022-08-02T11:33:54.800Z,1.45
2022-08-02T11:36:22.946Z,1.55
2022-08-02T11:38:49.607Z,1.50
2022-08-02T11:41:46.862Z,2.08
2022-08-02T11:46:36.901Z,1.60
2022-08-02T11:49:17.499Z,1.63
2022-08-02T11:51:59.622Z,1.88
2022-08-02T11:54:30.500Z,1.67
2022-08-02T11:57:09.168Z,1.65
2022-08-02T11:59:39.857Z,1.67
2022-08-02T12:02:07.583Z,1.70
2022-08-02T12:04:34.897Z,1.50
2022-08-02T12:07:04.131Z,1.65
2022-08-02T12:09:39.236Z,1.67
2022-08-02T12:12:07.640Z,1.33
2022-08-02T12:14:42.954Z,1.75
2022-08-02T12:17:28.699Z,1.63
2022-08-02T12:19:55.152Z,1.80
2022-08-02T12:22:27.182Z,1.92
2022-08-02T12:24:56.642Z,1.40
2022-08-02T12:27:34.402Z,1.30
2022-08-02T12:30:04.863Z,1.30
2022-08-02T12:32:31.417Z,1.80
2022-08-02T12:35:04.381Z,1.83
2022-08-02T12:37:31.336Z,2.55
2022-08-02T12:39:57.709Z,1.63
2022-08-02T12:42:24.253Z,2.10
2022-08-02T12:44:52.340Z,1.52
2022-08-02T12:47:19.175Z,2.25
2022-08-02T12:50:21.874Z,1.77
2022-08-02T12:52:49.527Z,1.70
2022-08-02T12:55:16.924Z,1.52
2022-08-02T12:58:00.388Z,2.00
2022-08-02T13:00:32.403Z,1.50
2022-08-02T13:02:59.533Z,1.90
2022-08-02T13:05:28.889Z,1.27
2022-08-02T13:08:15.434Z,2.75
2022-08-02T13:10:42.569Z,1.58
2022-08-02T13:13:11.469Z,1.50
2022-08-02T13:15:49.708Z,1.17
2022-08-02T13:18:18.254Z,1.48
2022-08-02T13:20:45.495Z,2.17
2022-08-02T13:23:21.034Z,1.67
2022-08-02T13:25:52.789Z,1.73
2022-08-02T13:28:19.513Z,2.42
2022-08-02T13:30:46.904Z,1.65
2022-08-02T13:33:13.843Z,1.45
2022-08-02T13:35:40.240Z,1.33
2022-08-02T13:38:06.632Z,1.48
2022-08-02T13:40:49.190Z,1.17
2022-08-02T13:43:19.911Z,1.60
2022-08-02T13:45:46.365Z,1.33
2022-08-02T13:48:16.939Z,1.67
2022-08-02T13:50:44.843Z,1.52
2022-08-02T13:53:11.244Z,1.40
2022-08-02T13:55:38.519Z,1.58
2022-08-02T13:58:10.024Z,1.55
2022-08-02T14:00:36.617Z,1.80
2022-08-02T14:03:07.397Z,1.35
2022-08-02T14:05:47.523Z,1.63
2022-08-02T14:08:19.264Z,1.48
2022-08-02T14:10:47.347Z,1.60
2022-08-02T14:13:13.768Z,1.30
2022-08-02T14:15:40.168Z,1.50
2022-08-02T14:18:06.547Z,1.85
2022-08-02T14:20:32.952Z,1.30
2022-08-02T14:22:59.333Z,1.88
2022-08-02T14:25:25.973Z,1.30
2022-08-02T14:27:52.628Z,1.70
2022-08-02T14:30:19.071Z,1.15
2022-08-02T14:32:45.482Z,1.45
2022-08-02T14:35:11.892Z,1.20
2022-08-02T14:37:38.240Z,1.27
2022-08-02T14:40:05.157Z,1.42
2022-08-02T14:42:31.602Z,1.38
2022-08-02T14:44:58.050Z,1.30
2022-08-02T14:47:24.475Z,1.65
2022-08-02T14:49:50.869Z,1.30
2022-08-02T14:52:17.790Z,1.08
2022-08-02T14:54:44.276Z,1.45
2022-08-02T14:57:13.678Z,1.40
2022-08-02T14:59:42.194Z,1.50
2022-08-02T15:02:09.655Z,1.58
2022-08-02T15:04:43.201Z,1.70
2022-08-02T15:07:10.373Z,1.67
2022-08-02T15:09:39.812Z,1.42
2022-08-02T15:12:07.452Z,1.40
2022-08-02T15:14:33.840Z,1.25
2022-08-02T15:17:00.266Z,1.40
2022-08-02T15:19:40.885Z,1.48
2022-08-02T15:22:15.321Z,1.58
2022-08-02T15:24:44.153Z,1.55
2022-08-02T15:27:13.346Z,1.30
2022-08-02T15:29:40.019Z,1.50
2022-08-02T15:32:06.762Z,1.67
2022-08-02T15:34:33.123Z,1.48
2022-08-02T15:36:59.482Z,1.55
2022-08-02T15:39:25.837Z,1.60
2022-08-02T15:41:52.217Z,1.65
2022-08-02T15:44:18.567Z,2.30
2022-08-02T15:46:44.951Z,2.22
2022-08-02T15:49:11.546Z,1.90
2022-08-02T15:51:37.977Z,1.58
2022-08-02T15:54:04.357Z,1.75
2022-08-02T15:56:30.734Z,1.20
2022-08-02T15:58:59.039Z,1.38
2022-08-02T16:01:32.039Z,1.25
2022-08-02T16:04:05.115Z,1.33
2022-08-02T16:06:31.496Z,1.60
2022-08-02T16:08:57.879Z,1.23
2022-08-02T16:11:24.252Z,1.55
2022-08-02T16:13:53.029Z,1.60
2022-08-02T16:16:28.728Z,1.48
2022-08-02T16:18:55.401Z,1.13
2022-08-02T16:21:25.456Z,1.13
2022-08-02T16:23:58.675Z,1.50
2022-08-02T16:26:29.571Z,1.35
2022-08-02T16:28:56.715Z,1.80
2022-08-02T16:31:23.759Z,1.33
2022-08-02T16:33:50.124Z,1.30
2022-08-02T16:36:19.541Z,1.20
2022-08-02T16:38:46.128Z,1.05
2022-08-02T16:41:12.612Z,1.10
2022-08-02T16:43:42.759Z,1.05
2022-08-02T16:46:10.256Z,2.30
2022-08-02T16:48:36.952Z,1.42
2022-08-02T16:51:03.573Z,1.20
2022-08-02T16:53:37.245Z,1.30
2022-08-02T16:56:21.308Z,1.50
2022-08-02T16:58:48.824Z,1.45
2022-08-02T17:01:15.414Z,1.63
2022-08-02T17:03:56.966Z,1.25
2022-08-02T17:06:26.255Z,1.52
2022-08-02T17:08:56.027Z,1.50
2022-08-02T17:11:23.838Z,2.10
2022-08-02T17:13:51.667Z,1.42
2022-08-02T17:16:21.026Z,1.52
2022-08-02T17:18:53.773Z,1.30
2022-08-02T17:21:20.253Z,1.23
2022-08-02T17:26:33.770Z,1.42
2022-08-02T17:29:17.733Z,1.50
2022-08-02T17:32:05.397Z,1.50
2022-08-02T17:34:33.868Z,1.48
2022-08-02T17:37:00.445Z,1.50
2022-08-02T17:39:33.821Z,1.55
2022-08-02T17:42:01.221Z,1.50
2022-08-02T17:44:37.273Z,1.75
2022-08-02T17:47:07.038Z,1.40
2022-08-02T17:49:33.707Z,2.00
2022-08-02T17:52:49.219Z,1.27
2022-08-02T17:54:48.741Z,1.10
2022-08-02T17:57:19.043Z,1.67
2022-08-02T18:00:03.627Z,3.90
2022-08-02T18:02:30.845Z,2.47
2022-08-02T18:04:57.304Z,1.40
2022-08-02T18:07:25.192Z,1.63
2022-08-02T18:09:51.923Z,1.45
2022-08-02T18:12:19.989Z,1.70
2022-08-02T18:14:49.102Z,1.42
2022-08-02T18:17:16.768Z,1.30
2022-08-02T18:19:57.474Z,1.33
2022-08-02T18:22:26.945Z,1.23
2022-08-02T18:24:53.836Z,1.38
2022-08-02T18:27:20.339Z,1.48
2022-08-02T18:29:47.312Z,1.45
2022-08-02T18:32:13.950Z,1.30
2022-08-02T18:34:40.533Z,1.33
2022-08-02T18:37:10.935Z,1.23
2022-08-02T18:39:38.446Z,1.33
2022-08-02T18:42:05.205Z,1.27
2022-08-02T18:44:31.611Z,2.08
2022-08-02T18:46:57.999Z,1.95
2022-08-02T18:49:30.074Z,1.30
2022-08-02T18:52:13.716Z,1.30
2022-08-02T18:54:40.141Z,1.40
2022-08-02T18:58:17.768Z,1.20
2022-08-02T18:59:53.899Z,1.77
2022-08-02T19:02:20.237Z,1.60
2022-08-02T19:04:54.258Z,1.40
2022-08-02T19:07:22.545Z,1.42
2022-08-02T19:09:50.027Z,1.70
2022-08-02T19:12:27.956Z,1.35
2022-08-02T19:14:55.003Z,1.35
2022-08-02T19:17:53.842Z,1.13
2022-08-02T19:20:09.929Z,1.20
2022-08-02T19:22:46.301Z,1.70
2022-08-02T19:25:14.151Z,1.60
2022-08-02T19:27:42.567Z,2.20
2022-08-02T19:30:14.532Z,2.47
2022-08-02T19:35:34.415Z,2.05
2022-08-02T19:38:09.105Z,1.98
2022-08-02T19:40:37.003Z,2.25
2022-08-02T19:44:20.738Z,2.17
2022-08-02T19:45:53.191Z,1.60
2022-08-02T19:48:25.539Z,1.95
2022-08-02T19:50:56.194Z,1.73
2022-08-02T19:53:28.718Z,1.75
2022-08-02T19:55:59.977Z,1.73
2022-08-02T20:01:19.387Z,2.00
2022-08-02T20:03:52.375Z,1.75
2022-08-02T20:06:20.181Z,2.15
2022-08-02T20:08:57.092Z,2.50
2022-08-02T20:11:25.616Z,1.67
2022-08-02T20:13:53.422Z,1.92
2022-08-02T20:16:27.477Z,1.88
2022-08-02T20:18:56.292Z,1.83
2022-08-02T20:21:36.621Z,1.70
2022-08-02T20:24:07.466Z,1.95
2022-08-02T20:26:35.384Z,2.13
2022-08-02T20:29:03.728Z,1.80
2022-08-02T20:31:30.538Z,1.90
2022-08-02T20:33:57.388Z,1.98
2022-08-02T21:11:09.014Z,2.40
2022-08-02T21:13:47.254Z,2.00
2022-08-02T21:16:23.181Z,2.97
2022-08-02T21:18:55.617Z,5.22
2022-08-02T21:21:27.287Z,2.20
2022-08-02T21:23:54.774Z,2.17
2022-08-02T21:26:28.567Z,2.42
2022-08-02T21:28:58.261Z,2.67
2022-08-02T21:31:30.017Z,2.58
2022-08-02T21:33:59.490Z,2.33
2022-08-02T21:36:33.095Z,2.13
2022-08-02T21:39:04.451Z,1.90
2022-08-02T21:41:38.518Z,2.05
2022-08-02T21:44:07.505Z,2.55
2022-08-02T21:46:34.013Z,2.00
2022-08-02T21:49:01.645Z,2.58
2022-08-02T21:51:28.421Z,2.30
2022-08-02T21:54:18.947Z,2.33
2022-08-02T21:56:42.142Z,2.47
2022-08-02T22:01:56.808Z,2.17
2022-08-02T22:04:27.148Z,2.45
2022-08-02T22:06:57.560Z,3.08
2022-08-02T22:09:44.485Z,2.55
2022-08-02T22:12:17.532Z,2.80
2022-08-02T22:17:16.770Z,2.90
2022-08-02T22:19:51.133Z,2.65
2022-08-02T22:22:28.536Z,2.75
2022-08-02T22:25:10.078Z,2.67
2022-08-02T22:28:35.942Z,2.63
2022-08-02T22:30:35.154Z,2.97
2022-08-02T22:33:21.329Z,2.47
2022-08-02T22:35:59.818Z,2.50
2022-08-02T22:38:26.449Z,2.70
2022-08-02T22:40:55.826Z,2.40
2022-08-02T22:43:23.047Z,2.72
2022-08-02T22:46:09.830Z,2.55
2022-08-02T22:48:42.284Z,2.83
2022-08-02T22:51:10.399Z,3.08
2022-08-02T22:53:39.855Z,2.88
2022-08-02T22:56:06.687Z,2.85
2022-08-02T22:58:33.480Z,2.72
2022-08-02T22:58:38.244Z,1.30
2022-08-02T22:58:59.434Z,2.55
2022-08-02T22:59:06.251Z,2.03
2022-08-02T22:59:11.208Z,2.40
2022-08-02T23:01:00.771Z,2.50
2022-08-02T23:03:27.666Z,2.63
2022-08-02T23:05:54.526Z,2.95
2022-08-02T23:08:21.306Z,2.80
2022-08-02T23:10:47.855Z,2.60
2022-08-02T23:13:14.823Z,2.42
2022-08-02T23:16:01.667Z,2.70
2022-08-02T23:18:47.383Z,2.72
2022-08-02T23:21:13.914Z,2.50
2022-08-02T23:24:00.908Z,3.03
2022-08-02T23:26:27.758Z,2.72
2022-08-02T23:28:54.362Z,2.63
2022-08-02T23:31:28.097Z,2.47
2022-08-02T23:34:04.445Z,3.35
2022-08-02T23:36:32.295Z,3.00
2022-08-02T23:38:59.769Z,2.83
2022-08-02T23:41:26.821Z,2.80
2022-08-02T23:44:12.439Z,2.78
2022-08-02T23:46:43.628Z,2.70
2022-08-02T23:49:12.340Z,2.97
2022-08-02T23:51:39.000Z,2.78
2022-08-02T23:54:05.711Z,2.85
2022-08-02T23:56:32.448Z,2.90
2022-08-02T23:58:59.067Z,2.75
